Al Kharsaah — C6VG3 — position and weather

sailwx.info

Track history (hours):
 
Tides and Currents Weather Stations Pressure Air Temp Water Temp Dewpoint Dewpoint Depression Visibility Wind Speed Wind Dir Waves Ship Positions

Al Kharsaah

Last reported at 2017-Sep-07 22:42 UTC. Time now 2017-Sep-21 19:33 UTC.
Position N 01°14' E 104°02'.
Warning: this ship's position is 13 days out of date.

Length 315 m; draft 12 m.

Type: Ship (hazmat cat D). MMSI: 309333000.

Date/timePositionNaut miles runAvg speedWind from/ knotsBaromVisibWave heightAir tempDewpointWater temp
2017-Sep-07 22:42N 01°14' E 104°02'415.1
2017-Sep-07 22:27N 01°14' E 103°58'512.2
2017-Sep-07 22:00N 01°12' E 103°53'612.3
2017-Sep-07 21:30N 01°09' E 103°48'714.6
2017-Sep-07 21:00N 01°04' E 103°42'510.9
2017-Sep-07 20:30N 01°04' E 103°37'510.1
2017-Sep-07 20:00N 01°07' E 103°32'5 9.7
2017-Sep-07 19:30N 01°09' E 103°28'713.2
2017-Sep-07 19:00N 01°13' E 103°23'  
Track history (hours):
 
Tides and Currents Weather Stations Pressure Air Temp Water Temp Dewpoint Dewpoint Depression Visibility Wind Speed Wind Dir Waves Ship Positions

Al Kharsaah

Last reported at 2017-Sep-07 22:42 UTC. Time now 2017-Sep-21 19:33 UTC.
Position N 01°14' E 104°02'.
Warning: this ship's position is 13 days out of date.

Length 315 m; draft 12 m.

Type: Ship (hazmat cat D). MMSI: 309333000.

Date/timePositionNaut miles runAvg speedWind from/ knotsBaromVisibWave heightAir tempDewpointWater temp
2017-Sep-07 22:42N 01°14' E 104°02'415.1
2017-Sep-07 22:27N 01°14' E 103°58'512.2
2017-Sep-07 22:00N 01°12' E 103°53'612.3
2017-Sep-07 21:30N 01°09' E 103°48'714.6
2017-Sep-07 21:00N 01°04' E 103°42'510.9
2017-Sep-07 20:30N 01°04' E 103°37'510.1
2017-Sep-07 20:00N 01°07' E 103°32'5 9.7
2017-Sep-07 19:30N 01°09' E 103°28'713.2
2017-Sep-07 19:00N 01°13' E 103°23'  

Dump ship's entire track history